createdAt,value
2023-04-21T00:00:22.510Z,8.80
2023-04-21T00:02:49.897Z,8.80
2023-04-21T00:05:17.270Z,8.80
2023-04-21T00:07:44.524Z,8.80
2023-04-21T00:10:12.173Z,8.70
2023-04-21T00:12:39.487Z,8.70
2023-04-21T00:15:07.819Z,8.70
2023-04-21T00:17:34.973Z,8.70
2023-04-21T00:20:02.034Z,8.70
2023-04-21T00:22:29.154Z,8.70
2023-04-21T00:24:56.234Z,8.70
2023-04-21T00:27:23.327Z,8.60
2023-04-21T00:29:50.534Z,8.60
2023-04-21T00:32:17.721Z,8.60
2023-04-21T00:34:45.117Z,8.60
2023-04-21T00:37:12.246Z,8.50
2023-04-21T00:39:39.586Z,8.50
2023-04-21T00:42:06.846Z,8.50
2023-04-21T00:44:33.924Z,8.50
2023-04-21T00:47:01.108Z,8.50
2023-04-21T00:49:28.826Z,8.50
2023-04-21T00:51:56.224Z,8.50
2023-04-21T00:54:28.020Z,8.40
2023-04-21T00:56:58.527Z,8.40
2023-04-21T00:59:25.684Z,8.40
2023-04-21T01:01:53.063Z,8.40
2023-04-21T01:04:20.348Z,8.40
2023-04-21T01:06:48.006Z,8.40
2023-04-21T01:09:15.491Z,8.30
2023-04-21T01:11:42.533Z,8.30
2023-04-21T01:14:09.601Z,8.30
2023-04-21T01:16:36.924Z,8.20
2023-04-21T01:19:05.740Z,8.20
2023-04-21T01:21:42.893Z,8.10
2023-04-21T01:24:10.109Z,8.10
2023-04-21T01:26:37.189Z,8.10
2023-04-21T01:29:04.353Z,8.00
2023-04-21T01:31:31.621Z,8.00
2023-04-21T01:34:05.230Z,7.90
2023-04-21T01:36:32.682Z,7.90
2023-04-21T01:38:59.818Z,7.90
2023-04-21T01:41:26.918Z,7.80
2023-04-21T01:43:54.056Z,7.80
2023-04-21T01:46:21.726Z,7.80
2023-04-21T01:48:48.897Z,7.80
2023-04-21T01:51:15.989Z,7.80
2023-04-21T01:53:43.025Z,7.70
2023-04-21T01:56:15.471Z,7.70
2023-04-21T01:58:42.529Z,7.70
2023-04-21T02:01:09.604Z,7.60
2023-04-21T02:03:36.900Z,7.60
2023-04-21T02:06:04.300Z,7.60
2023-04-21T02:08:31.373Z,7.60
2023-04-21T02:11:01.104Z,7.50
2023-04-21T02:13:28.180Z,7.50
2023-04-21T02:16:02.730Z,7.50
2023-04-21T02:18:40.066Z,7.50
2023-04-21T02:21:07.474Z,7.50
2023-04-21T02:23:34.553Z,7.50
2023-04-21T02:26:01.647Z,7.40
2023-04-21T02:28:28.676Z,7.40
2023-04-21T02:30:55.804Z,7.40
2023-04-21T02:33:23.192Z,7.40
2023-04-21T02:35:50.310Z,7.40
2023-04-21T02:38:17.438Z,7.40
2023-04-21T02:40:44.459Z,7.40
2023-04-21T02:43:12.750Z,7.40
2023-04-21T02:45:39.893Z,7.40
2023-04-21T02:48:07.137Z,7.30
2023-04-21T02:50:34.442Z,7.30
2023-04-21T02:53:01.577Z,7.30
2023-04-21T02:55:28.624Z,7.30
2023-04-21T02:57:55.882Z,7.30
2023-04-21T03:00:23.135Z,7.30
2023-04-21T03:02:50.538Z,7.30
2023-04-21T03:05:17.775Z,7.20
2023-04-21T03:07:46.168Z,7.20
2023-04-21T03:10:13.430Z,7.20
2023-04-21T03:12:40.538Z,7.20
2023-04-21T03:15:08.111Z,7.10
2023-04-21T03:17:35.255Z,7.20
2023-04-21T03:20:05.152Z,7.10
2023-04-21T03:22:32.325Z,7.10
2023-04-21T03:24:59.711Z,7.10
2023-04-21T03:27:26.796Z,7.00
2023-04-21T03:29:53.913Z,7.00
2023-04-21T03:32:21.187Z,7.00
2023-04-21T03:34:50.197Z,6.90
2023-04-21T03:37:17.312Z,6.90
2023-04-21T03:39:44.476Z,6.80
2023-04-21T03:42:11.554Z,6.80
2023-04-21T03:44:38.916Z,6.80
2023-04-21T03:47:05.983Z,6.80
2023-04-21T03:49:35.886Z,6.80
2023-04-21T03:52:03.286Z,6.70
2023-04-21T03:54:30.795Z,6.70
2023-04-21T03:56:58.293Z,6.70
2023-04-21T03:59:25.406Z,6.70
2023-04-21T04:01:52.465Z,6.70
2023-04-21T04:04:19.749Z,6.70
2023-04-21T04:06:46.977Z,6.70
2023-04-21T04:09:14.051Z,6.70
2023-04-21T04:11:41.068Z,6.60
2023-04-21T04:14:08.180Z,6.60
2023-04-21T04:16:36.162Z,6.60
2023-04-21T04:19:03.748Z,6.60
2023-04-21T04:21:32.538Z,6.60
2023-04-21T04:24:00.692Z,6.50
2023-04-21T04:26:28.431Z,6.50
2023-04-21T04:28:56.521Z,6.50
2023-04-21T04:31:25.508Z,6.60
2023-04-21T04:33:54.682Z,6.60
2023-04-21T04:36:23.846Z,6.60
2023-04-21T04:38:51.730Z,6.60
2023-04-21T04:41:20.999Z,6.60
2023-04-21T04:43:48.238Z,6.70
2023-04-21T04:46:15.353Z,6.70
2023-04-21T04:48:42.442Z,6.70
2023-04-21T04:51:09.558Z,6.80
2023-04-21T04:53:36.681Z,6.80
2023-04-21T04:56:03.803Z,6.80
2023-04-21T04:58:30.900Z,6.80
2023-04-21T05:00:58.057Z,6.90
2023-04-21T05:03:25.500Z,6.90
2023-04-21T05:05:52.689Z,7.00
2023-04-21T05:08:19.783Z,7.00
2023-04-21T05:10:46.850Z,7.10
2023-04-21T05:13:16.760Z,7.10
2023-04-21T05:15:43.868Z,7.20
2023-04-21T05:18:10.947Z,7.20
2023-04-21T05:20:42.489Z,7.30
2023-04-21T05:23:09.620Z,7.40
2023-04-21T05:25:38.633Z,7.40
2023-04-21T05:28:05.858Z,7.50
2023-04-21T05:30:32.961Z,7.60
2023-04-21T05:33:00.200Z,7.70
2023-04-21T05:35:27.322Z,7.80
2023-04-21T05:37:54.454Z,7.90
2023-04-21T05:40:21.735Z,8.00
2023-04-21T05:42:48.829Z,8.00
2023-04-21T05:45:15.951Z,8.10
2023-04-21T05:47:43.103Z,8.30
2023-04-21T05:50:10.698Z,8.30
2023-04-21T05:52:38.898Z,8.40
2023-04-21T05:55:06.801Z,8.50
2023-04-21T05:57:33.886Z,8.60
2023-04-21T06:00:00.921Z,8.80
2023-04-21T06:02:28.123Z,8.90
2023-04-21T06:04:55.419Z,9.00
2023-04-21T06:07:22.521Z,9.10
2023-04-21T06:09:52.753Z,9.20
2023-04-21T06:12:19.809Z,9.20
2023-04-21T06:14:46.881Z,9.20
2023-04-21T06:17:18.085Z,9.30
2023-04-21T06:19:45.425Z,9.30
2023-04-21T06:22:12.514Z,9.40
2023-04-21T06:24:39.620Z,9.40
2023-04-21T06:27:14.088Z,9.50
2023-04-21T06:29:44.481Z,9.60
2023-04-21T06:32:12.571Z,9.70
2023-04-21T06:34:39.969Z,9.90
2023-04-21T06:37:07.027Z,10.10
2023-04-21T06:39:34.332Z,10.30
2023-04-21T06:42:02.468Z,10.50
2023-04-21T06:44:50.549Z,10.60
2023-04-21T06:47:18.152Z,10.80
2023-04-21T06:49:45.874Z,11.00
2023-04-21T06:52:12.918Z,11.20
2023-04-21T06:54:40.097Z,11.30
2023-04-21T06:57:07.172Z,11.50
2023-04-21T06:59:34.795Z,11.70
2023-04-21T07:02:02.054Z,11.90
2023-04-21T07:04:37.568Z,12.00
2023-04-21T07:07:04.961Z,12.20
2023-04-21T07:09:33.900Z,12.20
2023-04-21T07:12:02.744Z,12.30
2023-04-21T07:14:29.922Z,12.50
2023-04-21T07:16:57.373Z,12.60
2023-04-21T07:19:24.635Z,12.70
2023-04-21T07:21:51.719Z,12.80
2023-04-21T07:24:18.868Z,12.90
2023-04-21T07:26:45.937Z,12.90
2023-04-21T07:29:13.062Z,12.80
2023-04-21T07:31:40.275Z,12.90
2023-04-21T07:34:07.380Z,12.90
2023-04-21T07:36:34.587Z,13.10
2023-04-21T07:39:01.637Z,13.30
2023-04-21T07:41:29.590Z,13.50
2023-04-21T07:43:56.747Z,13.50
2023-04-21T07:46:30.109Z,13.60
2023-04-21T07:48:58.568Z,13.70
2023-04-21T07:51:27.734Z,13.80
2023-04-21T07:53:54.842Z,13.80
2023-04-21T07:56:22.255Z,13.90
2023-04-21T07:58:49.319Z,14.00
2023-04-21T08:01:16.563Z,14.30
2023-04-21T08:03:44.217Z,14.50
2023-04-21T08:06:11.550Z,14.60
2023-04-21T08:08:38.714Z,14.70
2023-04-21T08:11:05.919Z,14.70
2023-04-21T08:13:33.047Z,14.80
2023-04-21T08:16:00.282Z,14.90
2023-04-21T08:18:27.527Z,14.90
2023-04-21T08:20:57.480Z,15.00
2023-04-21T08:23:24.929Z,15.20
2023-04-21T08:25:52.077Z,15.60
2023-04-21T08:28:19.184Z,15.90
2023-04-21T08:30:46.283Z,16.30
2023-04-21T08:33:14.081Z,16.40
2023-04-21T08:35:54.932Z,16.40
2023-04-21T08:38:28.716Z,16.40
2023-04-21T08:40:58.862Z,16.30
2023-04-21T08:43:26.840Z,16.20
2023-04-21T08:45:54.828Z,16.10
2023-04-21T08:48:23.885Z,16.10
2023-04-21T08:50:52.336Z,16.40
2023-04-21T08:53:19.563Z,16.70
2023-04-21T08:56:03.165Z,16.80
2023-04-21T08:58:37.727Z,16.90
2023-04-21T09:01:04.952Z,17.00
2023-04-21T09:03:32.073Z,17.10
2023-04-21T09:06:02.628Z,17.10
2023-04-21T09:08:30.856Z,17.00
2023-04-21T09:11:01.250Z,17.00
2023-04-21T09:13:34.859Z,17.00
2023-04-21T09:16:08.533Z,17.00
2023-04-21T09:18:40.329Z,17.10
2023-04-21T09:21:16.910Z,17.20
2023-04-21T09:23:49.261Z,17.20
2023-04-21T09:26:18.593Z,17.30
2023-04-21T09:28:48.227Z,17.40
2023-04-21T09:31:17.978Z,17.50
2023-04-21T09:33:57.606Z,17.60
2023-04-21T09:36:28.565Z,17.80
2023-04-21T09:41:33.202Z,18.00
2023-04-21T09:44:16.635Z,18.20
2023-04-21T09:46:48.051Z,18.60
2023-04-21T09:49:18.450Z,19.00
2023-04-21T09:52:06.048Z,19.40
2023-04-21T09:54:34.703Z,19.70
2023-04-21T09:57:04.844Z,20.10
2023-04-21T09:59:45.358Z,20.30
2023-04-21T10:02:13.263Z,20.50
2023-04-21T10:04:43.390Z,20.50
2023-04-21T10:07:13.676Z,20.50
2023-04-21T10:09:54.625Z,20.50
2023-04-21T10:12:23.461Z,20.70
2023-04-21T10:14:55.308Z,20.90
2023-04-21T10:17:27.023Z,21.20
2023-04-21T10:19:58.514Z,21.40
2023-04-21T10:22:36.254Z,21.60
2023-04-21T10:25:08.503Z,21.70
2023-04-21T10:27:42.109Z,22.00
2023-04-21T10:30:21.135Z,22.30
2023-04-21T10:32:48.823Z,22.30
2023-04-21T10:35:24.756Z,22.40
2023-04-21T10:37:52.928Z,22.30
2023-04-21T10:40:44.344Z,22.30
2023-04-21T10:43:48.404Z,22.20
2023-04-21T10:46:36.199Z,22.30
2023-04-21T10:49:27.519Z,22.40
2023-04-21T10:52:03.205Z,22.30
2023-04-21T10:54:47.522Z,21.90
2023-04-21T10:57:17.809Z,21.60
2023-04-21T10:59:46.647Z,21.50
2023-04-21T11:02:16.605Z,21.50
2023-04-21T11:04:50.623Z,21.40
2023-04-21T11:07:23.665Z,21.40
2023-04-21T11:10:11.448Z,21.70
2023-04-21T11:12:40.886Z,22.10
2023-04-21T11:15:14.422Z,22.30
2023-04-21T11:17:43.908Z,22.60
2023-04-21T11:20:11.331Z,22.90
2023-04-21T11:22:39.035Z,22.90
2023-04-21T11:25:16.382Z,23.10
2023-04-21T11:27:52.741Z,23.30
2023-04-21T11:30:19.949Z,23.50
2023-04-21T11:32:53.471Z,23.60
2023-04-21T11:35:21.000Z,23.70
2023-04-21T11:37:52.124Z,24.00
2023-04-21T11:40:19.648Z,24.00
2023-04-21T11:42:46.920Z,24.10
2023-04-21T11:45:22.082Z,24.30
2023-04-21T11:47:49.982Z,24.30
2023-04-21T11:50:39.005Z,23.80
2023-04-21T11:53:06.837Z,23.60
2023-04-21T11:55:34.751Z,23.80
2023-04-21T11:58:03.466Z,24.00
2023-04-21T12:00:33.815Z,24.40
2023-04-21T12:03:01.130Z,24.70
2023-04-21T12:05:36.510Z,24.90
2023-04-21T12:08:07.528Z,25.10
2023-04-21T12:10:34.713Z,25.40
2023-04-21T12:13:01.976Z,25.60
2023-04-21T12:15:31.889Z,25.60
2023-04-21T12:17:59.017Z,25.60
2023-04-21T12:20:29.983Z,25.50
2023-04-21T12:22:57.322Z,25.50
2023-04-21T12:25:25.188Z,25.40
2023-04-21T12:27:57.620Z,25.20
2023-04-21T12:30:24.932Z,25.20
2023-04-21T12:32:52.445Z,25.10
2023-04-21T12:35:19.704Z,25.20
2023-04-21T12:37:46.864Z,25.30
2023-04-21T12:40:13.993Z,25.30
2023-04-21T12:42:41.092Z,25.40
2023-04-21T12:45:08.892Z,25.50
2023-04-21T12:47:37.567Z,25.60
2023-04-21T12:50:05.849Z,25.60
2023-04-21T12:52:32.931Z,25.70
2023-04-21T12:55:00.123Z,25.80
2023-04-21T12:57:27.326Z,25.80
2023-04-21T12:59:55.126Z,25.80
2023-04-21T13:02:22.570Z,26.00
2023-04-21T13:04:49.884Z,25.80
2023-04-21T13:07:21.224Z,25.70
2023-04-21T13:09:48.442Z,25.70
2023-04-21T13:12:15.589Z,25.70
2023-04-21T13:14:42.846Z,25.80
2023-04-21T13:17:10.086Z,25.60
2023-04-21T13:19:37.242Z,25.20
2023-04-21T13:22:04.362Z,24.60
2023-04-21T13:24:31.641Z,24.70
2023-04-21T13:27:01.592Z,24.90
2023-04-21T13:29:30.435Z,25.30
2023-04-21T13:31:57.716Z,25.60
2023-04-21T13:34:24.816Z,25.90
2023-04-21T13:36:51.908Z,26.10
2023-04-21T13:39:19.113Z,26.10
2023-04-21T13:41:46.175Z,26.20
2023-04-21T13:44:13.247Z,26.30
2023-04-21T13:46:43.217Z,26.50
2023-04-21T13:49:13.058Z,26.60
2023-04-21T13:51:40.412Z,26.70
2023-04-21T13:54:07.644Z,26.60
2023-04-21T13:56:34.822Z,26.80
2023-04-21T13:59:01.937Z,26.80
2023-04-21T14:01:29.112Z,26.70
2023-04-21T14:03:57.522Z,26.50
2023-04-21T14:06:25.518Z,26.50
2023-04-21T14:08:53.639Z,26.50
2023-04-21T14:11:21.420Z,26.40
2023-04-21T14:14:07.573Z,26.50
2023-04-21T14:16:35.783Z,26.60
2023-04-21T14:19:03.348Z,26.50
2023-04-21T14:21:31.803Z,26.50
2023-04-21T14:23:59.070Z,26.50
2023-04-21T14:26:26.381Z,26.50
2023-04-21T14:28:53.506Z,26.70
2023-04-21T14:31:22.124Z,26.90
2023-04-21T14:33:49.561Z,26.90
2023-04-21T14:36:17.129Z,26.60
2023-04-21T14:38:44.306Z,26.50
2023-04-21T14:41:11.594Z,26.60
2023-04-21T14:43:38.957Z,26.60
2023-04-21T14:46:06.370Z,26.50
2023-04-21T14:48:34.455Z,26.60
2023-04-21T14:51:01.740Z,26.70
2023-04-21T14:53:28.884Z,26.90
2023-04-21T14:55:56.081Z,27.00
2023-04-21T14:58:23.395Z,27.00
2023-04-21T15:00:51.002Z,26.90
2023-04-21T15:03:18.275Z,26.70
2023-04-21T15:05:46.277Z,26.60
2023-04-21T15:08:18.068Z,26.40
2023-04-21T15:10:45.823Z,26.20
2023-04-21T15:13:13.909Z,26.00
2023-04-21T15:15:41.684Z,26.10
2023-04-21T15:18:08.876Z,26.10
2023-04-21T15:20:44.525Z,26.10
2023-04-21T15:23:12.921Z,26.10
2023-04-21T15:25:40.728Z,26.00
2023-04-21T15:28:08.674Z,25.90
2023-04-21T15:30:36.046Z,25.80
2023-04-21T15:33:03.311Z,25.60
2023-04-21T15:35:30.470Z,25.30
2023-04-21T15:37:57.636Z,24.90
2023-04-21T15:40:24.800Z,24.60
2023-04-21T15:42:52.025Z,24.50
2023-04-21T15:45:19.363Z,24.50
2023-04-21T15:47:46.426Z,24.30
2023-04-21T15:50:13.620Z,24.30
2023-04-21T15:52:43.387Z,24.30
2023-04-21T15:55:12.171Z,24.40
2023-04-21T15:57:39.431Z,24.50
2023-04-21T16:00:07.785Z,24.60
2023-04-21T16:02:35.188Z,24.50
2023-04-21T16:05:02.786Z,24.40
2023-04-21T16:07:30.190Z,24.30
2023-04-21T16:09:57.474Z,24.20
2023-04-21T16:12:24.632Z,24.00
2023-04-21T16:14:57.783Z,23.90
2023-04-21T16:17:32.072Z,23.70
2023-04-21T16:19:59.337Z,23.30
2023-04-21T16:22:26.704Z,23.00
2023-04-21T16:24:54.226Z,22.70
2023-04-21T16:27:21.611Z,22.50
2023-04-21T16:29:50.243Z,22.30
2023-04-21T16:32:17.563Z,22.10
2023-04-21T16:34:45.084Z,21.80
2023-04-21T16:37:12.309Z,21.70
2023-04-21T16:39:39.389Z,21.60
2023-04-21T16:42:06.624Z,21.50
2023-04-21T16:44:33.809Z,21.30
2023-04-21T16:47:01.100Z,21.10
2023-04-21T16:49:30.240Z,21.00
2023-04-21T16:51:57.648Z,20.80
2023-04-21T16:54:24.773Z,20.70
2023-04-21T16:56:52.040Z,20.50
2023-04-21T16:59:21.136Z,20.40
2023-04-21T17:01:48.290Z,20.30
2023-04-21T17:04:16.355Z,20.10
2023-04-21T17:09:11.035Z,19.70
2023-04-21T17:11:40.036Z,19.50
2023-04-21T17:14:07.401Z,19.30
2023-04-21T17:16:34.706Z,19.10
2023-04-21T17:19:02.529Z,18.90
2023-04-21T17:21:29.691Z,18.80
2023-04-21T17:23:56.814Z,18.70
2023-04-21T17:26:24.079Z,18.60
2023-04-21T17:28:51.590Z,18.50
2023-04-21T17:31:19.027Z,18.40
2023-04-21T17:33:46.109Z,18.30
2023-04-21T17:36:13.386Z,18.10
2023-04-21T17:38:42.821Z,18.00
2023-04-21T17:41:10.575Z,17.80
2023-04-21T17:43:37.815Z,17.80
2023-04-21T17:46:07.577Z,17.70
2023-04-21T17:48:34.789Z,17.60
2023-04-21T17:51:01.961Z,17.40
2023-04-21T17:53:29.160Z,17.30
2023-04-21T17:55:56.688Z,17.20
2023-04-21T17:58:26.235Z,17.10
2023-04-21T18:00:54.980Z,16.90
2023-04-21T18:03:22.579Z,16.90
2023-04-21T18:05:50.497Z,16.80
2023-04-21T18:08:17.825Z,16.60
2023-04-21T18:10:45.093Z,16.60
2023-04-21T18:13:12.545Z,16.40
2023-04-21T18:15:40.284Z,16.30
2023-04-21T18:18:07.788Z,16.20
2023-04-21T18:20:35.217Z,16.10
2023-04-21T18:23:03.008Z,16.00
2023-04-21T18:25:41.384Z,15.90
2023-04-21T18:28:11.346Z,15.80
2023-04-21T18:30:39.917Z,15.70
2023-04-21T18:33:07.512Z,15.60
2023-04-21T18:35:36.236Z,15.50
2023-04-21T18:38:04.462Z,15.50
2023-04-21T18:40:33.964Z,15.40
2023-04-21T18:43:01.514Z,15.30
2023-04-21T18:45:28.792Z,15.20
2023-04-21T18:47:56.497Z,15.10
2023-04-21T18:50:24.799Z,15.10
2023-04-21T18:52:52.491Z,15.00
2023-04-21T18:55:19.803Z,14.90
2023-04-21T18:57:47.981Z,14.80
2023-04-21T19:02:44.986Z,14.70
2023-04-21T19:05:12.397Z,14.60
2023-04-21T19:07:39.674Z,14.50
2023-04-21T19:10:08.637Z,14.40
2023-04-21T19:12:36.506Z,14.40
2023-04-21T19:15:04.807Z,14.30
2023-04-21T19:17:32.297Z,14.20
2023-04-21T19:20:00.412Z,14.10
2023-04-21T19:22:31.018Z,14.00
2023-04-21T19:24:59.242Z,14.00
2023-04-21T19:27:26.952Z,13.90
2023-04-21T19:29:56.128Z,13.90
2023-04-21T19:32:26.242Z,13.80
2023-04-21T19:34:54.044Z,13.80
2023-04-21T19:37:22.182Z,13.60
2023-04-21T19:39:49.990Z,13.60
2023-04-21T19:42:17.615Z,13.50
2023-04-21T19:44:45.340Z,13.40
2023-04-21T19:47:12.725Z,13.40
2023-04-21T19:49:40.268Z,13.30
2023-04-21T19:52:08.852Z,13.30
2023-04-21T19:54:36.430Z,13.20
2023-04-21T19:57:04.406Z,13.10
2023-04-21T19:59:39.675Z,13.00
2023-04-21T20:02:07.742Z,12.90
2023-04-21T20:04:35.086Z,12.90
2023-04-21T20:07:03.298Z,12.80
2023-04-21T20:09:31.078Z,12.70
2023-04-21T20:11:58.981Z,12.70
2023-04-21T20:14:26.721Z,12.60
2023-04-21T20:16:55.664Z,12.50
2023-04-21T20:19:23.078Z,12.50
2023-04-21T20:21:50.298Z,12.40
2023-04-21T20:24:17.790Z,12.40
2023-04-21T20:26:45.771Z,12.30
2023-04-21T20:29:13.036Z,12.20
2023-04-21T20:31:40.350Z,12.20
2023-04-21T20:34:09.197Z,12.10
2023-04-21T20:36:37.057Z,12.10
2023-04-21T20:39:06.454Z,12.00
2023-04-21T20:41:33.941Z,12.00
2023-04-21T20:44:01.114Z,11.90
2023-04-21T20:46:29.948Z,11.90
2023-04-21T20:49:00.257Z,11.80
2023-04-21T20:51:27.936Z,11.70
2023-04-21T20:53:55.080Z,11.70
2023-04-21T20:56:22.454Z,11.60
2023-04-21T20:58:50.931Z,11.60
2023-04-21T21:01:18.362Z,11.50
2023-04-21T21:03:46.491Z,11.50
2023-04-21T21:06:14.650Z,11.50
2023-04-21T21:08:42.082Z,11.40
2023-04-21T21:11:09.237Z,11.40
2023-04-21T21:13:36.319Z,11.30
2023-04-21T21:16:03.518Z,11.30
2023-04-21T21:18:34.566Z,11.30
2023-04-21T21:21:01.918Z,11.20
2023-04-21T21:23:29.298Z,11.20
2023-04-21T21:25:58.570Z,11.10
2023-04-21T21:28:25.845Z,11.10
2023-04-21T21:30:53.029Z,11.10
2023-04-21T21:33:20.172Z,11.00
2023-04-21T21:35:47.346Z,11.00
2023-04-21T21:38:14.597Z,10.90
2023-04-21T21:40:41.631Z,10.90
2023-04-21T21:43:10.347Z,10.90
2023-04-21T21:45:37.629Z,10.80
2023-04-21T21:48:05.238Z,10.80
2023-04-21T21:50:32.389Z,10.80
2023-04-21T21:52:59.508Z,10.80
2023-04-21T21:55:27.503Z,10.70
2023-04-21T21:57:54.678Z,10.70
2023-04-21T22:00:21.937Z,10.70
2023-04-21T22:02:49.159Z,10.70
2023-04-21T22:05:16.396Z,10.60
2023-04-21T22:07:43.488Z,10.60
2023-04-21T22:10:11.767Z,10.50
2023-04-21T22:12:39.028Z,10.50
2023-04-21T22:15:06.957Z,10.50
2023-04-21T22:17:34.775Z,10.40
2023-04-21T22:20:04.596Z,10.40
2023-04-21T22:22:31.981Z,10.30
2023-04-21T22:24:59.079Z,10.30
2023-04-21T22:27:26.278Z,10.20
2023-04-21T22:29:54.329Z,10.20
2023-04-21T22:32:21.871Z,10.10
2023-04-21T22:34:49.029Z,10.00
2023-04-21T22:37:16.165Z,10.00
2023-04-21T22:39:43.269Z,10.00
2023-04-21T22:42:10.490Z,9.90
2023-04-21T22:44:37.666Z,9.90
2023-04-21T22:47:05.020Z,9.90
2023-04-21T22:49:32.168Z,9.80
2023-04-21T22:51:59.257Z,9.80
2023-04-21T22:54:26.453Z,9.70
2023-04-21T22:56:54.129Z,9.70
2023-04-21T22:59:21.208Z,9.60
2023-04-21T23:01:48.347Z,9.60
2023-04-21T23:04:15.545Z,9.50
2023-04-21T23:06:42.749Z,9.50
2023-04-21T23:09:09.865Z,9.50
2023-04-21T23:11:36.965Z,9.40
2023-04-21T23:14:04.058Z,9.40
2023-04-21T23:16:31.407Z,9.40
2023-04-21T23:18:58.657Z,9.30
2023-04-21T23:21:26.195Z,9.30
2023-04-21T23:23:53.288Z,9.30
2023-04-21T23:26:21.654Z,9.20
2023-04-21T23:28:48.752Z,9.20
2023-04-21T23:31:15.866Z,9.20
2023-04-21T23:33:42.981Z,9.20
2023-04-21T23:36:10.165Z,9.20
2023-04-21T23:38:37.233Z,9.20
2023-04-21T23:41:04.407Z,9.10
2023-04-21T23:43:31.583Z,9.10
2023-04-21T23:45:58.710Z,9.00
2023-04-21T23:48:25.970Z,9.10
2023-04-21T23:50:53.209Z,9.00
2023-04-21T23:53:20.535Z,9.00
2023-04-21T23:55:47.926Z,8.90
2023-04-21T23:58:15.004Z,8.90
